Gildeskaal — LLDI — position and weather

sailwx.info

Track history (hours):
 
Tides and Currents Weather Stations Pressure Air Temp Water Temp Dewpoint Dewpoint Depression Visibility Wind Speed Wind Dir Waves Ship Positions

Gildeskaal

Last reported at 2016-Feb-08 20:33 UTC. Time now 2016-Feb-08 21:24 UTC.
Position N 67°08' E 013°59'.

Length 52 m; draft 3.2 m.

Type: Ship. MMSI: 259680000.

Date/timePositionNaut miles runAvg speedWind from/ knotsBaromVisibWave heightAir tempDewpointWater temp
2016-Feb-08 20:33N 67°08' E 013°59'3 2.9
2016-Feb-08 19:26N 67°05' E 014°03'2 2.3
2016-Feb-08 18:33N 67°07' E 013°59'0 0.2
2016-Feb-08 17:33N 67°07' E 013°59'1 1.4
2016-Feb-08 16:33N 67°08' E 013°59'3 3.4
2016-Feb-08 15:33N 67°05' E 014°01'1 0.7
2016-Feb-08 14:14N 67°05' E 014°03'3 4.7
2016-Feb-08 13:33N 67°08' E 013°59'2 0.7
2016-Feb-08 10:33N 67°06' E 013°59'2 2.3
2016-Feb-08 09:33N 67°08' E 013°59'2 1.5
2016-Feb-08 08:33N 67°07' E 013°59'2 1.1
2016-Feb-08 06:33N 67°05' E 014°02'3 3.5
2016-Feb-08 05:33N 67°08' E 013°59'0 0.0
2016-Feb-08 04:33N 67°08' E 013°59'0 0.0
2016-Feb-08 03:33N 67°08' E 013°59'0 0.0
2016-Feb-08 02:33N 67°08' E 013°59'0 0.0
2016-Feb-08 01:33N 67°08' E 013°59'0 0.0
2016-Feb-08 00:33N 67°08' E 013°59'0 0.0
2016-Feb-07 23:33N 67°08' E 013°59'0 0.0
2016-Feb-07 22:33N 67°08' E 013°59'0 0.0
2016-Feb-07 21:33N 67°08' E 013°59'0 0.0
2016-Feb-07 20:33N 67°08' E 013°59'3 1.6
2016-Feb-07 18:25N 67°05' E 014°02'2 2.0
2016-Feb-07 17:33N 67°06' E 013°59'2 1.4
2016-Feb-07 16:16N 67°05' E 014°02'3 4.9
2016-Feb-07 15:33N 67°08' E 013°59'1 1.4
2016-Feb-07 14:33N 67°07' E 013°59'2 0.4
2016-Feb-07 09:25N 67°05' E 014°02'2 2.1
2016-Feb-07 08:33N 67°06' E 013°59'1 0.1
2016-Feb-06 16:33N 67°05' E 014°00'1 0.6
2016-Feb-06 15:32N 67°05' E 014°01'2 0.3
2016-Feb-06 10:33N 67°06' E 013°58'2 2.2
2016-Feb-06 09:33N 67°08' E 013°59'1 1.4
2016-Feb-06 08:33N 67°07' E 013°59'2 2.3
2016-Feb-06 07:33N 67°05' E 014°02'3 3.5
2016-Feb-06 06:33N 67°08' E 013°59'0 0.0
2016-Feb-06 05:33N 67°08' E 013°59'0 0.0
2016-Feb-06 04:33N 67°08' E 013°59'0 0.0
2016-Feb-06 03:33N 67°08' E 013°59'0 0.0
2016-Feb-06 02:33N 67°08' E 013°59'0 0.0
2016-Feb-06 01:33N 67°08' E 013°59'0 0.0
2016-Feb-06 00:33N 67°08' E 013°59'0 0.0
2016-Feb-05 23:33N 67°08' E 013°59'0 0.0
2016-Feb-05 22:33N 67°08' E 013°59'0 0.0
2016-Feb-05 21:33N 67°08' E 013°59'0 0.0
2016-Feb-05 20:33N 67°08' E 013°59'3 3.1
2016-Feb-05 19:33N 67°05' E 014°00'2 1.7
2016-Feb-05 18:33N 67°07' E 013°59'1 0.5
2016-Feb-05 16:33N 67°06' E 013°59'1 1.3
2016-Feb-05 15:33N 67°05' E 014°01'0 0.3
2016-Feb-05 14:32N 67°05' E 014°02'3 3.6
2016-Feb-05 13:33N 67°08' E 013°59'0 0.0
2016-Feb-05 12:33N 67°08' E 013°59'3 3.4
2016-Feb-05 11:32N 67°05' E 014°01'2 1.6
2016-Feb-05 10:33N 67°06' E 013°58'2 2.3
2016-Feb-05 09:33N 67°08' E 013°59'1 1.4
2016-Feb-05 08:33N 67°07' E 013°59'2 1.1
2016-Feb-05 06:33N 67°05' E 014°02'3 3.4
2016-Feb-05 05:33N 67°08' E 013°59'0 0.0
2016-Feb-05 04:33N 67°08' E 013°59'0 0.0
2016-Feb-05 03:33N 67°08' E 013°59'0 0.0
2016-Feb-05 02:33N 67°08' E 013°59'0 0.0
2016-Feb-05 01:33N 67°08' E 013°59'0 0.0
2016-Feb-05 00:33N 67°08' E 013°59'0 0.0
2016-Feb-04 23:33N 67°08' E 013°59'0 0.0
2016-Feb-04 22:33N 67°08' E 013°59'0 0.0
2016-Feb-04 21:33N 67°08' E 013°59'0 0.0
2016-Feb-04 20:33N 67°08' E 013°59'3 2.9
2016-Feb-04 19:23N 67°05' E 014°02'2 2.4
2016-Feb-04 18:33N 67°06' E 013°59'1 0.7
2016-Feb-04 17:33N 67°06' E 013°59'2 2.5
2016-Feb-04 16:33N 67°08' E 013°59'3 3.3
2016-Feb-04 15:33N 67°05' E 014°01'0 0.4
2016-Feb-04 14:31N 67°05' E 014°02'3 3.6
2016-Feb-04 13:33N 67°08' E 013°59'0 0.0
2016-Feb-04 12:33N 67°08' E 013°59'3 2.7
2016-Feb-04 11:33N 67°06' E 013°59'1 0.6
2016-Feb-04 10:33N 67°06' E 013°58'2 2.2
2016-Feb-04 09:33N 67°08' E 013°59'2 1.7
2016-Feb-04 08:33N 67°07' E 013°59'2 1.0
2016-Feb-04 06:29N 67°05' E 014°02'4 3.8
2016-Feb-04 05:33N 67°08' E 013°59'0 0.0
2016-Feb-04 04:33N 67°08' E 013°59'0 0.0
2016-Feb-04 03:33N 67°08' E 013°59'0 0.0
2016-Feb-04 02:33N 67°08' E 013°59'0 0.0
2016-Feb-04 01:33N 67°08' E 013°59'0 0.0
2016-Feb-04 00:33N 67°08' E 013°59'0 0.0
2016-Feb-03 23:33N 67°08' E 013°59'0 0.0
2016-Feb-03 22:33N 67°08' E 013°59'0 0.0
2016-Feb-03 21:33N 67°08' E 013°59'0 0.0
2016-Feb-03 20:33N 67°08' E 013°59'3 3.0
2016-Feb-03 19:30N 67°05' E 014°03'2 2.0
2016-Feb-03 18:34N 67°06' E 013°59'1 1.1
2016-Feb-03 17:33N 67°05' E 013°60'3 2.9
2016-Feb-03 16:33N 67°08' E 013°59'3 3.4
2016-Feb-03 15:33N 67°05' E 014°01'0 0.1
2016-Feb-03 14:31N 67°05' E 014°02'4 3.7
2016-Feb-03 13:33N 67°08' E 013°59'0 0.0
2016-Feb-03 12:33N 67°08' E 013°59'3 2.7
2016-Feb-03 11:32N 67°06' E 013°60'1 0.7
2016-Feb-03 10:33N 67°06' E 013°58'2 2.2
2016-Feb-03 09:33N 67°08' E 013°59'2 1.5
2016-Feb-03 08:33N 67°07' E 013°59'2 1.1
2016-Feb-03 06:33N 67°05' E 014°02'3 3.5
2016-Feb-03 05:33N 67°08' E 013°59'0 0.0
2016-Feb-03 04:33N 67°08' E 013°59'0 0.0
2016-Feb-03 03:33N 67°08' E 013°59'0 0.0
2016-Feb-03 02:33N 67°08' E 013°59'0 0.0
2016-Feb-03 01:33N 67°08' E 013°59'0 0.0
2016-Feb-03 00:33N 67°08' E 013°59'0 0.0
2016-Feb-02 23:33N 67°08' E 013°59'0 0.0
2016-Feb-02 22:33N 67°08' E 013°59'0 0.0
2016-Feb-02 21:33N 67°08' E 013°59'0 0.0
2016-Feb-02 20:33N 67°08' E 013°59'3 3.0
2016-Feb-02 19:24N 67°05' E 014°02'2 2.7
2016-Feb-02 18:33N 67°07' E 013°59'1 1.3
2016-Feb-02 17:32N 67°06' E 013°59'3 2.7
2016-Feb-02 16:33N 67°08' E 013°59'3 3.4
2016-Feb-02 15:32N 67°05' E 014°01'0 0.4
2016-Feb-02 14:33N 67°05' E 014°02'3 3.4
2016-Feb-02 13:33N 67°08' E 013°59'0 0.0
2016-Feb-02 12:33N 67°08' E 013°59'2 2.4
2016-Feb-02 11:33N 67°06' E 013°59'0 0.2
2016-Feb-02 10:33N 67°06' E 013°59'2 2.3
2016-Feb-02 09:33N 67°08' E 013°59'1 1.4
2016-Feb-02 08:33N 67°07' E 013°59'2 1.1
2016-Feb-02 06:32N 67°05' E 014°02'3 3.5
2016-Feb-02 05:33N 67°08' E 013°59'0 0.0
2016-Feb-02 04:33N 67°08' E 013°59'0 0.0
2016-Feb-02 03:33N 67°08' E 013°59'0 0.0
2016-Feb-02 02:33N 67°08' E 013°59'0 0.0
2016-Feb-02 01:33N 67°08' E 013°59'0 0.0
2016-Feb-02 00:33N 67°08' E 013°59'0 0.0
2016-Feb-01 23:33N 67°08' E 013°59'0 0.0
2016-Feb-01 22:33N 67°08' E 013°59'0 0.0
2016-Feb-01 21:33N 67°08' E 013°59'0 0.0
2016-Feb-01 20:33N 67°08' E 013°59'3 3.3
2016-Feb-01 19:32N 67°05' E 014°02'2 2.0
2016-Feb-01 18:33N 67°06' E 013°59'1 0.7
2016-Feb-01 17:33N 67°06' E 013°59'2 2.4
2016-Feb-01 16:33N 67°08' E 013°59'3 3.3
2016-Feb-01 15:31N 67°05' E 014°01'1 0.6
2016-Feb-01 14:13N 67°05' E 014°03'3 4.9
2016-Feb-01 13:33N 67°08' E 013°59'2 0.7
2016-Feb-01 10:33N 67°06' E 013°58'2 2.2
2016-Feb-01 09:33N 67°08' E 013°59'1 1.4
2016-Feb-01 08:33N 67°07' E 013°58'2 1.1
2016-Feb-01 06:33N 67°05' E 014°02'3 3.5
2016-Feb-01 05:33N 67°08' E 013°59'0 0.0
2016-Feb-01 04:33N 67°08' E 013°59'0 0.0
2016-Feb-01 03:33N 67°08' E 013°59'0 0.0
2016-Feb-01 02:33N 67°08' E 013°59'0 0.0
2016-Feb-01 01:33N 67°08' E 013°59'0 0.0
2016-Feb-01 00:33N 67°08' E 013°59'0 0.0
2016-Jan-31 23:33N 67°08' E 013°59'0 0.0
2016-Jan-31 22:33N 67°08' E 013°59'0 0.0
2016-Jan-31 21:33N 67°08' E 013°59'0 0.0
2016-Jan-31 20:33N 67°08' E 013°59'3 1.6
2016-Jan-31 18:27N 67°05' E 014°02'2 2.4
2016-Jan-31 17:33N 67°07' E 013°59'2 1.7
2016-Jan-31 16:18N 67°05' E 014°02'3 4.6
2016-Jan-31 15:34N 67°08' E 013°59'2 1.5
2016-Jan-31 14:34N 67°07' E 013°59'2 0.4
2016-Jan-31 09:23N 67°05' E 014°02'2 2.5
2016-Jan-31 08:33N 67°07' E 013°59'1 0.1
2016-Jan-30 16:33N 67°06' E 013°59'1 1.1
2016-Jan-30 15:33N 67°05' E 014°01'1 0.3
2016-Jan-30 11:11N 67°05' E 014°04'3 4.0
2016-Jan-30 10:33N 67°06' E 013°59'2 2.2
2016-Jan-30 09:33N 67°08' E 013°59'2 1.6
2016-Jan-30 08:33N 67°07' E 013°59'2 2.0
2016-Jan-30 07:33N 67°05' E 014°01'3 3.5
2016-Jan-30 06:33N 67°08' E 013°59'0 0.0
2016-Jan-30 05:33N 67°08' E 013°59'0 0.0
2016-Jan-30 04:33N 67°08' E 013°59'0 0.0
2016-Jan-30 03:33N 67°08' E 013°59'0 0.0
2016-Jan-30 02:33N 67°08' E 013°59'0 0.0
2016-Jan-30 01:33N 67°08' E 013°59'0 0.0
2016-Jan-30 00:33N 67°08' E 013°59'0 0.0
2016-Jan-29 23:33N 67°08' E 013°59'0 0.0
2016-Jan-29 22:33N 67°08' E 013°59'0 0.0
2016-Jan-29 21:33N 67°08' E 013°59'  
Track history (hours):
 
Tides and Currents Weather Stations Pressure Air Temp Water Temp Dewpoint Dewpoint Depression Visibility Wind Speed Wind Dir Waves Ship Positions

Gildeskaal

Last reported at 2016-Feb-08 20:33 UTC. Time now 2016-Feb-08 21:24 UTC.
Position N 67°08' E 013°59'.

Length 52 m; draft 3.2 m.

Type: Ship. MMSI: 259680000.

Date/timePositionNaut miles runAvg speedWind from/ knotsBaromVisibWave heightAir tempDewpointWater temp
2016-Feb-08 20:33N 67°08' E 013°59'3 2.9
2016-Feb-08 19:26N 67°05' E 014°03'2 2.3
2016-Feb-08 18:33N 67°07' E 013°59'0 0.2
2016-Feb-08 17:33N 67°07' E 013°59'1 1.4
2016-Feb-08 16:33N 67°08' E 013°59'3 3.4
2016-Feb-08 15:33N 67°05' E 014°01'1 0.7
2016-Feb-08 14:14N 67°05' E 014°03'3 4.7
2016-Feb-08 13:33N 67°08' E 013°59'2 0.7
2016-Feb-08 10:33N 67°06' E 013°59'2 2.3
2016-Feb-08 09:33N 67°08' E 013°59'2 1.5
2016-Feb-08 08:33N 67°07' E 013°59'2 1.1
2016-Feb-08 06:33N 67°05' E 014°02'3 3.5
2016-Feb-08 05:33N 67°08' E 013°59'0 0.0
2016-Feb-08 04:33N 67°08' E 013°59'0 0.0
2016-Feb-08 03:33N 67°08' E 013°59'0 0.0
2016-Feb-08 02:33N 67°08' E 013°59'0 0.0
2016-Feb-08 01:33N 67°08' E 013°59'0 0.0
2016-Feb-08 00:33N 67°08' E 013°59'0 0.0
2016-Feb-07 23:33N 67°08' E 013°59'0 0.0
2016-Feb-07 22:33N 67°08' E 013°59'0 0.0
2016-Feb-07 21:33N 67°08' E 013°59'0 0.0
2016-Feb-07 20:33N 67°08' E 013°59'3 1.6
2016-Feb-07 18:25N 67°05' E 014°02'2 2.0
2016-Feb-07 17:33N 67°06' E 013°59'2 1.4
2016-Feb-07 16:16N 67°05' E 014°02'3 4.9
2016-Feb-07 15:33N 67°08' E 013°59'1 1.4
2016-Feb-07 14:33N 67°07' E 013°59'2 0.4
2016-Feb-07 09:25N 67°05' E 014°02'2 2.1
2016-Feb-07 08:33N 67°06' E 013°59'1 0.1
2016-Feb-06 16:33N 67°05' E 014°00'1 0.6
2016-Feb-06 15:32N 67°05' E 014°01'2 0.3
2016-Feb-06 10:33N 67°06' E 013°58'2 2.2
2016-Feb-06 09:33N 67°08' E 013°59'1 1.4
2016-Feb-06 08:33N 67°07' E 013°59'2 2.3
2016-Feb-06 07:33N 67°05' E 014°02'3 3.5
2016-Feb-06 06:33N 67°08' E 013°59'0 0.0
2016-Feb-06 05:33N 67°08' E 013°59'0 0.0
2016-Feb-06 04:33N 67°08' E 013°59'0 0.0
2016-Feb-06 03:33N 67°08' E 013°59'0 0.0
2016-Feb-06 02:33N 67°08' E 013°59'0 0.0
2016-Feb-06 01:33N 67°08' E 013°59'0 0.0
2016-Feb-06 00:33N 67°08' E 013°59'0 0.0
2016-Feb-05 23:33N 67°08' E 013°59'0 0.0
2016-Feb-05 22:33N 67°08' E 013°59'0 0.0
2016-Feb-05 21:33N 67°08' E 013°59'0 0.0
2016-Feb-05 20:33N 67°08' E 013°59'3 3.1
2016-Feb-05 19:33N 67°05' E 014°00'2 1.7
2016-Feb-05 18:33N 67°07' E 013°59'1 0.5
2016-Feb-05 16:33N 67°06' E 013°59'1 1.3
2016-Feb-05 15:33N 67°05' E 014°01'0 0.3
2016-Feb-05 14:32N 67°05' E 014°02'3 3.6
2016-Feb-05 13:33N 67°08' E 013°59'0 0.0
2016-Feb-05 12:33N 67°08' E 013°59'3 3.4
2016-Feb-05 11:32N 67°05' E 014°01'2 1.6
2016-Feb-05 10:33N 67°06' E 013°58'2 2.3
2016-Feb-05 09:33N 67°08' E 013°59'1 1.4
2016-Feb-05 08:33N 67°07' E 013°59'2 1.1
2016-Feb-05 06:33N 67°05' E 014°02'3 3.4
2016-Feb-05 05:33N 67°08' E 013°59'0 0.0
2016-Feb-05 04:33N 67°08' E 013°59'0 0.0
2016-Feb-05 03:33N 67°08' E 013°59'0 0.0
2016-Feb-05 02:33N 67°08' E 013°59'0 0.0
2016-Feb-05 01:33N 67°08' E 013°59'0 0.0
2016-Feb-05 00:33N 67°08' E 013°59'0 0.0
2016-Feb-04 23:33N 67°08' E 013°59'0 0.0
2016-Feb-04 22:33N 67°08' E 013°59'0 0.0
2016-Feb-04 21:33N 67°08' E 013°59'0 0.0
2016-Feb-04 20:33N 67°08' E 013°59'3 2.9
2016-Feb-04 19:23N 67°05' E 014°02'2 2.4
2016-Feb-04 18:33N 67°06' E 013°59'1 0.7
2016-Feb-04 17:33N 67°06' E 013°59'2 2.5
2016-Feb-04 16:33N 67°08' E 013°59'3 3.3
2016-Feb-04 15:33N 67°05' E 014°01'0 0.4
2016-Feb-04 14:31N 67°05' E 014°02'3 3.6
2016-Feb-04 13:33N 67°08' E 013°59'0 0.0
2016-Feb-04 12:33N 67°08' E 013°59'3 2.7
2016-Feb-04 11:33N 67°06' E 013°59'1 0.6
2016-Feb-04 10:33N 67°06' E 013°58'2 2.2
2016-Feb-04 09:33N 67°08' E 013°59'2 1.7
2016-Feb-04 08:33N 67°07' E 013°59'2 1.0
2016-Feb-04 06:29N 67°05' E 014°02'4 3.8
2016-Feb-04 05:33N 67°08' E 013°59'0 0.0
2016-Feb-04 04:33N 67°08' E 013°59'0 0.0
2016-Feb-04 03:33N 67°08' E 013°59'0 0.0
2016-Feb-04 02:33N 67°08' E 013°59'0 0.0
2016-Feb-04 01:33N 67°08' E 013°59'0 0.0
2016-Feb-04 00:33N 67°08' E 013°59'0 0.0
2016-Feb-03 23:33N 67°08' E 013°59'0 0.0
2016-Feb-03 22:33N 67°08' E 013°59'0 0.0
2016-Feb-03 21:33N 67°08' E 013°59'0 0.0
2016-Feb-03 20:33N 67°08' E 013°59'3 3.0
2016-Feb-03 19:30N 67°05' E 014°03'2 2.0
2016-Feb-03 18:34N 67°06' E 013°59'1 1.1
2016-Feb-03 17:33N 67°05' E 013°60'3 2.9
2016-Feb-03 16:33N 67°08' E 013°59'3 3.4
2016-Feb-03 15:33N 67°05' E 014°01'0 0.1
2016-Feb-03 14:31N 67°05' E 014°02'4 3.7
2016-Feb-03 13:33N 67°08' E 013°59'0 0.0
2016-Feb-03 12:33N 67°08' E 013°59'3 2.7
2016-Feb-03 11:32N 67°06' E 013°60'1 0.7
2016-Feb-03 10:33N 67°06' E 013°58'2 2.2
2016-Feb-03 09:33N 67°08' E 013°59'2 1.5
2016-Feb-03 08:33N 67°07' E 013°59'2 1.1
2016-Feb-03 06:33N 67°05' E 014°02'3 3.5
2016-Feb-03 05:33N 67°08' E 013°59'0 0.0
2016-Feb-03 04:33N 67°08' E 013°59'0 0.0
2016-Feb-03 03:33N 67°08' E 013°59'0 0.0
2016-Feb-03 02:33N 67°08' E 013°59'0 0.0
2016-Feb-03 01:33N 67°08' E 013°59'0 0.0
2016-Feb-03 00:33N 67°08' E 013°59'0 0.0
2016-Feb-02 23:33N 67°08' E 013°59'0 0.0
2016-Feb-02 22:33N 67°08' E 013°59'0 0.0
2016-Feb-02 21:33N 67°08' E 013°59'0 0.0
2016-Feb-02 20:33N 67°08' E 013°59'3 3.0
2016-Feb-02 19:24N 67°05' E 014°02'2 2.7
2016-Feb-02 18:33N 67°07' E 013°59'1 1.3
2016-Feb-02 17:32N 67°06' E 013°59'3 2.7
2016-Feb-02 16:33N 67°08' E 013°59'3 3.4
2016-Feb-02 15:32N 67°05' E 014°01'0 0.4
2016-Feb-02 14:33N 67°05' E 014°02'3 3.4
2016-Feb-02 13:33N 67°08' E 013°59'0 0.0
2016-Feb-02 12:33N 67°08' E 013°59'2 2.4
2016-Feb-02 11:33N 67°06' E 013°59'0 0.2
2016-Feb-02 10:33N 67°06' E 013°59'2 2.3
2016-Feb-02 09:33N 67°08' E 013°59'1 1.4
2016-Feb-02 08:33N 67°07' E 013°59'2 1.1
2016-Feb-02 06:32N 67°05' E 014°02'3 3.5
2016-Feb-02 05:33N 67°08' E 013°59'0 0.0
2016-Feb-02 04:33N 67°08' E 013°59'0 0.0
2016-Feb-02 03:33N 67°08' E 013°59'0 0.0
2016-Feb-02 02:33N 67°08' E 013°59'0 0.0
2016-Feb-02 01:33N 67°08' E 013°59'0 0.0
2016-Feb-02 00:33N 67°08' E 013°59'0 0.0
2016-Feb-01 23:33N 67°08' E 013°59'0 0.0
2016-Feb-01 22:33N 67°08' E 013°59'0 0.0
2016-Feb-01 21:33N 67°08' E 013°59'0 0.0
2016-Feb-01 20:33N 67°08' E 013°59'3 3.3
2016-Feb-01 19:32N 67°05' E 014°02'2 2.0
2016-Feb-01 18:33N 67°06' E 013°59'1 0.7
2016-Feb-01 17:33N 67°06' E 013°59'2 2.4
2016-Feb-01 16:33N 67°08' E 013°59'3 3.3
2016-Feb-01 15:31N 67°05' E 014°01'1 0.6
2016-Feb-01 14:13N 67°05' E 014°03'3 4.9
2016-Feb-01 13:33N 67°08' E 013°59'2 0.7
2016-Feb-01 10:33N 67°06' E 013°58'2 2.2
2016-Feb-01 09:33N 67°08' E 013°59'1 1.4
2016-Feb-01 08:33N 67°07' E 013°58'2 1.1
2016-Feb-01 06:33N 67°05' E 014°02'3 3.5
2016-Feb-01 05:33N 67°08' E 013°59'0 0.0
2016-Feb-01 04:33N 67°08' E 013°59'0 0.0
2016-Feb-01 03:33N 67°08' E 013°59'0 0.0
2016-Feb-01 02:33N 67°08' E 013°59'0 0.0
2016-Feb-01 01:33N 67°08' E 013°59'0 0.0
2016-Feb-01 00:33N 67°08' E 013°59'0 0.0
2016-Jan-31 23:33N 67°08' E 013°59'0 0.0
2016-Jan-31 22:33N 67°08' E 013°59'0 0.0
2016-Jan-31 21:33N 67°08' E 013°59'0 0.0
2016-Jan-31 20:33N 67°08' E 013°59'3 1.6
2016-Jan-31 18:27N 67°05' E 014°02'2 2.4
2016-Jan-31 17:33N 67°07' E 013°59'2 1.7
2016-Jan-31 16:18N 67°05' E 014°02'3 4.6
2016-Jan-31 15:34N 67°08' E 013°59'2 1.5
2016-Jan-31 14:34N 67°07' E 013°59'2 0.4
2016-Jan-31 09:23N 67°05' E 014°02'2 2.5
2016-Jan-31 08:33N 67°07' E 013°59'1 0.1
2016-Jan-30 16:33N 67°06' E 013°59'1 1.1
2016-Jan-30 15:33N 67°05' E 014°01'1 0.3
2016-Jan-30 11:11N 67°05' E 014°04'3 4.0
2016-Jan-30 10:33N 67°06' E 013°59'2 2.2
2016-Jan-30 09:33N 67°08' E 013°59'2 1.6
2016-Jan-30 08:33N 67°07' E 013°59'2 2.0
2016-Jan-30 07:33N 67°05' E 014°01'3 3.5
2016-Jan-30 06:33N 67°08' E 013°59'0 0.0
2016-Jan-30 05:33N 67°08' E 013°59'0 0.0
2016-Jan-30 04:33N 67°08' E 013°59'0 0.0
2016-Jan-30 03:33N 67°08' E 013°59'0 0.0
2016-Jan-30 02:33N 67°08' E 013°59'0 0.0
2016-Jan-30 01:33N 67°08' E 013°59'0 0.0
2016-Jan-30 00:33N 67°08' E 013°59'0 0.0
2016-Jan-29 23:33N 67°08' E 013°59'0 0.0
2016-Jan-29 22:33N 67°08' E 013°59'0 0.0
2016-Jan-29 21:33N 67°08' E 013°59'  

Dump ship's entire track history